Time;durP1;ratioP1;P1;durP2;ratioP2;P2;SDS_P1;SDS_P2;PMS_P1;PMS_P2;Temp;Humidity;BMP_temperature;BMP_pressure;BME280_temperature;BME280_humidity;BME280_pressure;Samples;Min_cycle;Max_cycle;Signal;HPM_P1;HPM_P2
2023/01/01 00:01:09;;;;;;;56.90;41.90;;;8.00;99.90;;;;;;5017547;28;20224;-80
2023/01/01 00:03:35;;;;;;;51.95;41.35;;;8.00;99.90;;;;;;5020729;28;20188;-80
2023/01/01 00:06:09;;;;;;;55.15;43.17;;;8.00;99.90;;;;;;5017746;28;20580;-80
2023/01/01 00:08:35;;;;;;;65.60;50.88;;;8.00;99.90;;;;;;5021335;28;20762;-80
2023/01/01 00:11:02;;;;;;;77.70;59.95;;;7.90;99.90;;;;;;5020854;28;20197;-80
2023/01/01 00:13:28;;;;;;;75.25;57.92;;;7.80;99.90;;;;;;5020101;28;20192;-80
2023/01/01 00:15:53;;;;;;;74.63;55.67;;;7.70;99.90;;;;;;5022147;28;20173;-80
2023/01/01 00:18:19;;;;;;;79.15;53.78;;;7.70;99.90;;;;;;5014127;28;20185;-80
2023/01/01 00:20:45;;;;;;;71.07;54.20;;;7.70;99.90;;;;;;5022551;28;20734;-80
2023/01/01 00:23:11;;;;;;;71.65;52.38;;;7.60;99.90;;;;;;5019485;28;20181;-80
2023/01/01 00:25:39;;;;;;;62.33;50.47;;;7.50;99.90;;;;;;5020324;28;20184;-80
2023/01/01 00:28:05;;;;;;;64.03;49.38;;;7.50;99.90;;;;;;5017838;28;20201;-80
2023/01/01 00:30:31;;;;;;;57.97;46.83;;;7.40;99.90;;;;;;5018863;28;20187;-80
2023/01/01 00:32:56;;;;;;;55.50;44.63;;;7.40;99.90;;;;;;5019246;28;20273;-80
2023/01/01 00:35:25;;;;;;;54.58;42.22;;;7.40;99.90;;;;;;5026575;28;20177;-80
2023/01/01 00:37:52;;;;;;;59.90;45.33;;;7.40;99.90;;;;;;5017944;28;20264;-80
2023/01/01 00:40:17;;;;;;;55.83;43.00;;;7.30;99.90;;;;;;5020491;28;20173;-80
2023/01/01 00:42:43;;;;;;;60.28;44.45;;;7.30;99.90;;;;;;5017568;28;20266;-79
2023/01/01 00:45:09;;;;;;;55.17;40.70;;;7.20;99.90;;;;;;5017749;28;20181;-80
2023/01/01 00:47:35;;;;;;;48.78;36.50;;;7.10;99.90;;;;;;5016376;28;20201;-80
2023/01/01 00:50:00;;;;;;;56.60;40.22;;;7.20;99.90;;;;;;5022937;28;20180;-80
2023/01/01 00:52:26;;;;;;;56.72;45.47;;;7.20;99.90;;;;;;5016058;28;20204;-80
2023/01/01 00:54:51;;;;;;;63.05;49.45;;;7.20;99.90;;;;;;5019191;28;20363;-79
2023/01/01 00:57:17;;;;;;;64.60;49.08;;;7.20;99.90;;;;;;5020757;28;20174;-80
2023/01/01 00:59:42;;;;;;;65.10;48.30;;;7.20;99.90;;;;;;5019505;28;20558;-80
2023/01/01 01:02:08;;;;;;;61.17;46.05;;;7.10;99.90;;;;;;5012358;28;20197;-79
2023/01/01 01:04:34;;;;;;;59.67;45.38;;;7.20;99.90;;;;;;5013116;28;20197;-80
2023/01/01 01:06:59;;;;;;;65.90;45.15;;;7.10;99.90;;;;;;5018231;28;20177;-80
2023/01/01 01:09:25;;;;;;;52.03;40.75;;;7.10;99.90;;;;;;5022303;28;20205;-80
2023/01/01 01:11:50;;;;;;;47.55;37.20;;;7.10;99.90;;;;;;5021196;28;20624;-80
2023/01/01 01:14:16;;;;;;;53.95;41.65;;;7.10;99.90;;;;;;5015072;28;20185;-79
2023/01/01 01:16:41;;;;;;;56.40;40.67;;;7.10;99.90;;;;;;5020987;28;20260;-80
2023/01/01 01:19:12;;;;;;;48.00;37.20;;;7.00;99.90;;;;;;5014882;28;20707;-80
2023/01/01 01:21:38;;;;;;;49.67;38.13;;;7.00;99.90;;;;;;5035039;28;20197;-79
2023/01/01 01:24:03;;;;;;;47.92;35.88;;;6.90;99.90;;;;;;5019704;28;20342;-80
2023/01/01 01:26:31;;;;;;;49.47;38.65;;;6.90;99.90;;;;;;5023516;28;20184;-80
2023/01/01 01:28:57;;;;;;;47.30;35.65;;;6.90;99.90;;;;;;5017384;28;20208;-80
2023/01/01 01:31:27;;;;;;;46.90;36.38;;;7.00;99.90;;;;;;5017430;28;20205;-80
2023/01/01 01:33:52;;;;;;;44.90;35.30;;;7.00;99.90;;;;;;5021911;28;20188;-79
2023/01/01 01:36:18;;;;;;;44.17;34.75;;;7.00;99.90;;;;;;5027206;28;20165;-80
2023/01/01 01:38:44;;;;;;;47.45;33.10;;;7.00;99.90;;;;;;5020107;28;20510;-80
2023/01/01 01:41:13;;;;;;;50.15;37.97;;;7.00;99.90;;;;;;5015976;28;20215;-80
2023/01/01 01:43:38;;;;;;;48.97;34.85;;;7.10;99.90;;;;;;5020293;28;20543;-80
2023/01/01 01:46:16;;;;;;;54.30;41.25;;;7.10;99.90;;;;;;5015262;28;20185;-80
2023/01/01 01:48:45;;;;;;;56.20;43.65;;;7.10;99.90;;;;;;5016762;28;20209;-80
2023/01/01 01:51:13;;;;;;;57.95;40.10;;;7.00;99.90;;;;;;5018566;28;20228;-80
2023/01/01 01:53:50;;;;;;;58.40;43.17;;;6.90;99.90;;;;;;5017867;28;20204;-80
2023/01/01 01:56:20;;;;;;;54.40;43.35;;;6.90;99.90;;;;;;5013602;28;20183;-80
2023/01/01 01:58:46;;;;;;;58.65;42.97;;;6.90;99.90;;;;;;5019165;28;20185;-80
2023/01/01 02:01:11;;;;;;;63.35;48.20;;;6.90;99.90;;;;;;5014335;28;20209;-80
2023/01/01 02:03:57;;;;;;;66.55;47.28;;;6.90;99.90;;;;;;5016467;28;20190;-80
2023/01/01 02:06:26;;;;;;;69.22;47.72;;;6.80;99.90;;;;;;5013744;28;20234;-80
2023/01/01 02:08:53;;;;;;;62.63;45.72;;;6.80;99.90;;;;;;5020071;28;20247;-80
2023/01/01 02:11:18;;;;;;;70.97;51.08;;;6.80;99.90;;;;;;5017219;28;20197;-79
2023/01/01 02:13:44;;;;;;;63.45;47.40;;;6.70;99.90;;;;;;5014771;28;20185;-80
2023/01/01 02:16:19;;;;;;;72.68;52.47;;;6.80;99.90;;;;;;5018938;28;20256;-80
2023/01/01 02:19:11;;;;;;;69.03;47.78;;;6.70;99.90;;;;;;5016952;28;20683;-79
2023/01/01 02:21:55;;;;;;;64.50;48.03;;;6.80;99.90;;;;;;5014554;28;20197;-80
2023/01/01 02:24:41;;;;;;;66.15;47.75;;;6.80;99.90;;;;;;5011763;28;20173;-80
2023/01/01 02:27:57;;;;;;;64.70;46.83;;;6.70;99.90;;;;;;5007128;28;20186;-80
2023/01/01 02:30:22;;;;;;;62.55;42.50;;;6.70;99.90;;;;;;5016228;28;20197;-80
2023/01/01 02:33:00;;;;;;;61.85;44.95;;;6.70;99.90;;;;;;5014427;28;20177;-80
2023/01/01 02:35:33;;;;;;;52.63;41.13;;;6.70;99.90;;;;;;5015701;28;20692;-80
2023/01/01 02:38:04;;;;;;;66.82;48.38;;;6.70;99.90;;;;;;5016143;28;20177;-80
2023/01/01 02:40:32;;;;;;;70.57;50.88;;;6.70;99.90;;;;;;5014189;28;20579;-80
2023/01/01 02:43:00;;;;;;;68.80;48.58;;;6.60;99.90;;;;;;5018267;28;20243;-80
2023/01/01 02:45:26;;;;;;;68.65;48.08;;;6.60;99.90;;;;;;5014955;28;20208;-80
2023/01/01 02:47:51;;;;;;;57.58;39.85;;;6.60;99.90;;;;;;5021643;28;20306;-80
2023/01/01 02:50:24;;;;;;;64.38;44.28;;;6.60;99.90;;;;;;5019440;28;20172;-80
2023/01/01 02:53:02;;;;;;;63.92;46.10;;;6.70;99.90;;;;;;5016431;28;20648;-80
2023/01/01 02:55:38;;;;;;;77.50;53.08;;;6.70;99.90;;;;;;5014335;28;20177;-80
2023/01/01 03:01:26;;;;;;;64.40;45.83;;;6.70;99.90;;;;;;5016327;28;20567;-79
2023/01/01 03:04:20;;;;;;;64.18;46.22;;;6.60;99.90;;;;;;5009603;28;20667;-80
2023/01/01 03:07:01;;;;;;;56.70;39.63;;;6.60;99.90;;;;;;5019831;28;20188;-79
2023/01/01 03:09:47;;;;;;;61.95;44.97;;;6.60;99.90;;;;;;5017736;28;20208;-80
2023/01/01 03:12:41;;;;;;;63.17;46.22;;;6.60;99.90;;;;;;5020712;28;20457;-80
2023/01/01 03:15:16;;;;;;;58.78;44.63;;;6.50;99.90;;;;;;5012343;28;20208;-80
2023/01/01 03:17:53;;;;;;;57.90;42.40;;;6.50;99.90;;;;;;5013543;28;20184;-80
2023/01/01 03:20:27;;;;;;;65.68;44.42;;;6.60;99.90;;;;;;5011182;28;20408;-80
2023/01/01 03:22:57;;;;;;;61.50;43.50;;;6.40;99.90;;;;;;5014203;28;20183;-79
2023/01/01 03:25:27;;;;;;;64.78;47.47;;;6.40;99.90;;;;;;5016267;28;20217;-80
2023/01/01 03:27:58;;;;;;;66.88;47.38;;;6.40;99.90;;;;;;5016818;28;20639;-80
2023/01/01 03:30:24;;;;;;;68.40;47.60;;;6.30;99.90;;;;;;5014119;28;20173;-80
2023/01/01 03:33:02;;;;;;;67.35;48.30;;;6.40;99.90;;;;;;5018189;28;20180;-80
2023/01/01 03:35:34;;;;;;;65.30;48.72;;;6.40;99.90;;;;;;5015092;28;20614;-80
2023/01/01 03:38:01;;;;;;;64.38;46.90;;;6.40;99.90;;;;;;5013892;28;20714;-79
2023/01/01 03:40:30;;;;;;;69.32;48.13;;;6.30;99.90;;;;;;5018248;28;20230;-80
2023/01/01 03:43:07;;;;;;;55.55;39.75;;;6.30;99.90;;;;;;5012654;28;20242;-80
2023/01/01 03:45:37;;;;;;;63.80;45.95;;;6.30;99.90;;;;;;5020326;28;20659;-79
2023/01/01 03:48:05;;;;;;;64.78;44.20;;;6.30;99.90;;;;;;5017784;28;20679;-80
2023/01/01 03:51:11;;;;;;;64.32;44.95;;;6.30;99.90;;;;;;5014496;28;20201;-81
2023/01/01 03:53:42;;;;;;;64.25;45.22;;;6.30;99.90;;;;;;5013392;28;20184;-80
2023/01/01 03:56:30;;;;;;;63.85;46.33;;;6.20;99.90;;;;;;5016797;28;20182;-80
2023/01/01 03:59:42;;;;;;;66.75;49.85;;;6.30;99.90;;;;;;5014534;28;20176;-80
2023/01/01 04:02:11;;;;;;;72.35;45.25;;;6.30;99.90;;;;;;5026258;28;20209;-80
2023/01/01 04:04:37;;;;;;;57.85;42.92;;;6.30;99.90;;;;;;5031508;28;20695;-80
2023/01/01 04:07:03;;;;;;;65.45;46.60;;;6.30;99.90;;;;;;5014656;28;20201;-80
2023/01/01 04:09:32;;;;;;;60.85;43.97;;;6.30;99.90;;;;;;5020325;28;20211;-80
2023/01/01 04:12:03;;;;;;;60.53;42.28;;;6.30;99.90;;;;;;5017140;28;20203;-80
2023/01/01 04:14:33;;;;;;;63.42;46.97;;;6.30;99.90;;;;;;5010360;28;20909;-80
2023/01/01 04:17:01;;;;;;;43.97;33.53;;;6.30;99.90;;;;;;5021427;28;20204;-80
2023/01/01 04:19:27;;;;;;;56.67;42.65;;;6.20;99.90;;;;;;5015549;28;20177;-80
2023/01/01 04:21:52;;;;;;;60.55;44.15;;;6.20;99.90;;;;;;5018324;28;20294;-79
2023/01/01 04:24:19;;;;;;;53.47;37.97;;;6.20;99.90;;;;;;5016144;28;20180;-80
2023/01/01 04:26:44;;;;;;;55.20;39.72;;;6.20;99.90;;;;;;5021119;28;20696;-80
2023/01/01 04:29:10;;;;;;;57.92;40.58;;;6.10;99.90;;;;;;5022838;28;20291;-79
2023/01/01 04:31:35;;;;;;;65.25;45.30;;;6.10;99.90;;;;;;5017111;28;20201;-79
2023/01/01 04:34:01;;;;;;;57.03;42.08;;;5.90;99.90;;;;;;5025712;28;20248;-80
2023/01/01 04:36:27;;;;;;;61.40;46.22;;;6.00;99.90;;;;;;5021128;28;20169;-80
2023/01/01 04:38:52;;;;;;;62.05;44.58;;;6.00;99.90;;;;;;5016980;28;20730;-80
2023/01/01 04:41:18;;;;;;;64.55;45.65;;;5.90;99.90;;;;;;5024161;28;20209;-80
2023/01/01 04:43:55;;;;;;;66.97;46.95;;;5.90;99.90;;;;;;5025698;28;20184;-80
2023/01/01 04:46:21;;;;;;;62.40;44.60;;;5.90;99.90;;;;;;5032412;28;20235;-80
2023/01/01 04:48:48;;;;;;;65.95;45.90;;;5.90;99.90;;;;;;5017130;28;20235;-79
2023/01/01 04:51:15;;;;;;;71.60;49.92;;;5.90;99.90;;;;;;5017815;28;20201;-79
2023/01/01 04:53:41;;;;;;;62.22;43.47;;;5.90;99.90;;;;;;5038850;28;20246;-80
2023/01/01 04:56:12;;;;;;;54.40;37.35;;;5.90;99.90;;;;;;5020208;28;20643;-79
2023/01/01 04:58:39;;;;;;;62.63;43.65;;;6.00;99.90;;;;;;5020088;28;20176;-80
2023/01/01 05:01:05;;;;;;;60.78;43.88;;;5.90;99.90;;;;;;5016972;28;20209;-80
2023/01/01 05:03:31;;;;;;;74.88;44.50;;;5.90;99.90;;;;;;5015270;28;20261;-80
2023/01/01 05:06:01;;;;;;;67.00;45.75;;;5.90;99.90;;;;;;5021960;28;20184;-80
2023/01/01 05:08:29;;;;;;;59.75;43.25;;;5.90;99.90;;;;;;5036572;28;20196;-80
2023/01/01 05:11:06;;;;;;;56.20;41.85;;;5.80;99.90;;;;;;5017747;28;20244;-80
2023/01/01 05:13:33;;;;;;;56.75;41.83;;;5.80;99.90;;;;;;5016602;28;20645;-79
2023/01/01 05:16:02;;;;;;;61.00;43.97;;;5.80;99.90;;;;;;5023503;28;20267;-80
2023/01/01 05:18:28;;;;;;;55.90;39.80;;;5.80;99.90;;;;;;5014048;28;20192;-79
2023/01/01 05:20:59;;;;;;;64.90;43.40;;;5.70;99.90;;;;;;5019303;28;20208;-80
2023/01/01 05:23:24;;;;;;;56.17;39.35;;;5.60;99.90;;;;;;5021878;28;20652;-79
2023/01/01 05:25:50;;;;;;;62.15;43.38;;;5.60;99.90;;;;;;5023657;28;20284;-80
2023/01/01 05:28:16;;;;;;;56.38;39.20;;;5.50;99.90;;;;;;5021489;28;20641;-79
2023/01/01 05:30:41;;;;;;;54.13;37.50;;;5.60;99.90;;;;;;5014658;28;20185;-80
2023/01/01 05:33:07;;;;;;;57.75;39.13;;;5.50;99.90;;;;;;5019144;28;20181;-79
2023/01/01 05:35:33;;;;;;;58.00;42.53;;;5.50;99.90;;;;;;5020139;28;20185;-79
2023/01/01 05:37:59;;;;;;;58.28;43.10;;;5.50;99.90;;;;;;5018390;28;20675;-80
2023/01/01 05:40:24;;;;;;;63.00;41.20;;;5.40;99.90;;;;;;5014781;28;20181;-80
2023/01/01 05:42:50;;;;;;;57.67;40.50;;;5.40;99.90;;;;;;5015932;28;20550;-80
2023/01/01 05:45:15;;;;;;;58.22;41.13;;;5.40;99.90;;;;;;5017934;28;20295;-80
2023/01/01 05:47:41;;;;;;;58.00;39.90;;;5.40;99.90;;;;;;5020846;28;20204;-79
2023/01/01 05:50:07;;;;;;;53.80;40.95;;;5.40;99.90;;;;;;5016869;28;20191;-79
2023/01/01 05:52:33;;;;;;;53.47;38.13;;;5.50;99.90;;;;;;5019743;28;20233;-80
2023/01/01 05:54:59;;;;;;;51.00;38.40;;;5.40;99.90;;;;;;5019482;28;20193;-80
2023/01/01 05:57:27;;;;;;;54.88;39.63;;;5.40;99.90;;;;;;5020470;28;20186;-79
2023/01/01 05:59:53;;;;;;;54.60;39.42;;;5.40;99.90;;;;;;5010870;28;20277;-80
2023/01/01 06:02:18;;;;;;;53.28;36.22;;;5.40;99.90;;;;;;5018473;28;20276;-80
2023/01/01 06:04:44;;;;;;;56.53;39.50;;;5.40;99.90;;;;;;5016837;28;20193;-80
2023/01/01 06:07:10;;;;;;;54.38;40.08;;;5.50;99.90;;;;;;5019810;28;20205;-79
2023/01/01 06:09:35;;;;;;;50.58;36.40;;;5.40;99.90;;;;;;5019504;28;20615;-80
2023/01/01 06:12:01;;;;;;;56.97;41.65;;;5.40;99.90;;;;;;5017978;28;20193;-80
2023/01/01 06:14:26;;;;;;;54.50;38.58;;;5.40;99.90;;;;;;5022605;28;20254;-80
2023/01/01 06:16:52;;;;;;;54.50;37.00;;;5.40;99.90;;;;;;5017600;28;20690;-79
2023/01/01 06:19:17;;;;;;;49.53;35.08;;;5.40;99.90;;;;;;5020602;28;20181;-79
2023/01/01 06:21:43;;;;;;;47.95;34.92;;;5.40;99.90;;;;;;5016584;28;20244;-80
2023/01/01 06:24:09;;;;;;;51.45;35.92;;;5.40;99.90;;;;;;5016301;28;20208;-80
2023/01/01 06:26:34;;;;;;;50.00;35.17;;;5.40;99.90;;;;;;5017535;28;20559;-80
2023/01/01 06:29:01;;;;;;;51.30;35.67;;;5.40;99.90;;;;;;5022203;28;20212;-80
2023/01/01 06:31:28;;;;;;;46.63;32.35;;;5.50;99.90;;;;;;5013767;28;20256;-79
2023/01/01 06:33:54;;;;;;;53.33;35.83;;;5.40;99.90;;;;;;5014669;28;20235;-80
2023/01/01 06:36:22;;;;;;;49.00;33.67;;;5.40;99.90;;;;;;5022547;28;20185;-80
2023/01/01 06:38:50;;;;;;;53.83;38.97;;;5.40;99.90;;;;;;5026987;28;20181;-80
2023/01/01 06:41:18;;;;;;;54.83;40.05;;;5.40;99.90;;;;;;5018385;28;20607;-80
2023/01/01 06:43:44;;;;;;;55.17;39.03;;;5.30;99.90;;;;;;5023168;28;20185;-80
2023/01/01 06:46:39;;;;;;;46.75;34.30;;;5.30;99.90;;;;;;5016105;28;20189;-80
2023/01/01 06:49:08;;;;;;;52.55;37.63;;;5.30;99.90;;;;;;5010905;28;20223;-80
2023/01/01 06:51:42;;;;;;;54.17;36.78;;;5.20;99.90;;;;;;5017975;28;20612;-80
2023/01/01 06:54:09;;;;;;;54.42;37.28;;;5.10;99.90;;;;;;5017730;28;20652;-80
2023/01/01 06:56:35;;;;;;;46.20;30.77;;;5.10;99.90;;;;;;5016540;28;20181;-80
2023/01/01 06:59:01;;;;;;;49.72;34.05;;;5.30;99.90;;;;;;5013579;28;20181;-80
2023/01/01 07:01:28;;;;;;;53.33;37.42;;;5.30;99.90;;;;;;5017271;28;20208;-80
2023/01/01 07:03:59;;;;;;;49.20;35.38;;;5.20;99.90;;;;;;5016426;28;20197;-80
2023/01/01 07:06:27;;;;;;;48.35;36.40;;;5.20;99.90;;;;;;5013947;28;20251;-80
2023/01/01 07:08:52;;;;;;;48.53;36.80;;;5.30;99.90;;;;;;5021124;28;20208;-80
2023/01/01 07:11:18;;;;;;;51.60;38.13;;;5.30;99.90;;;;;;5013212;28;20192;-79
2023/01/01 07:13:44;;;;;;;48.50;33.05;;;5.30;99.90;;;;;;5017920;28;20189;-79
2023/01/01 07:16:10;;;;;;;55.58;36.45;;;5.30;99.90;;;;;;5019423;28;20168;-80
2023/01/01 07:18:37;;;;;;;45.90;32.85;;;5.40;99.90;;;;;;5016202;28;20188;-79
2023/01/01 07:21:04;;;;;;;45.72;33.00;;;5.40;99.90;;;;;;5012079;28;20204;-80
2023/01/01 07:23:33;;;;;;;46.92;35.33;;;5.40;99.90;;;;;;5015121;28;20181;-80
2023/01/01 07:25:59;;;;;;;39.17;27.92;;;5.40;99.90;;;;;;5021120;28;20189;-80
2023/01/01 07:28:26;;;;;;;43.40;33.60;;;5.50;99.90;;;;;;5018133;28;20591;-80
2023/01/01 07:30:55;;;;;;;44.45;32.90;;;5.60;99.90;;;;;;5015618;28;20665;-80
2023/01/01 07:33:23;;;;;;;47.58;33.58;;;5.50;99.90;;;;;;5013911;28;20192;-80
2023/01/01 07:35:49;;;;;;;44.65;33.00;;;5.50;99.90;;;;;;5010839;28;21089;-80
2023/01/01 07:38:15;;;;;;;46.10;33.22;;;5.40;99.90;;;;;;5017393;28;20204;-80
2023/01/01 07:40:41;;;;;;;41.55;31.80;;;5.50;99.90;;;;;;5007111;28;20187;-80
2023/01/01 07:43:07;;;;;;;38.30;30.77;;;5.50;99.90;;;;;;5017122;28;20263;-80
2023/01/01 07:45:34;;;;;;;41.17;31.23;;;5.50;99.90;;;;;;5029495;28;20200;-80
2023/01/01 07:48:00;;;;;;;42.15;31.25;;;5.60;99.90;;;;;;5013752;28;20749;-80
2023/01/01 07:50:29;;;;;;;46.60;32.22;;;5.60;99.90;;;;;;5011646;28;20184;-80
2023/01/01 07:52:55;;;;;;;44.33;32.13;;;5.60;99.90;;;;;;5014312;28;20691;-80
2023/01/01 07:55:21;;;;;;;39.03;30.65;;;5.60;99.90;;;;;;5016328;28;20279;-80
2023/01/01 07:57:47;;;;;;;41.22;30.35;;;5.60;99.90;;;;;;5014101;28;20288;-80
2023/01/01 08:00:16;;;;;;;37.13;28.35;;;5.70;99.90;;;;;;5022653;28;20177;-80
2023/01/01 08:02:42;;;;;;;41.50;30.70;;;5.70;99.90;;;;;;5016321;28;20223;-79
2023/01/01 08:05:08;;;;;;;39.33;30.42;;;5.80;99.90;;;;;;5018530;28;20682;-80
2023/01/01 08:07:34;;;;;;;36.53;26.58;;;5.80;99.90;;;;;;5014467;28;20180;-80
2023/01/01 08:09:59;;;;;;;37.00;30.70;;;5.90;99.90;;;;;;5021598;28;20300;-80
2023/01/01 08:12:25;;;;;;;36.50;28.30;;;5.90;99.90;;;;;;5012160;28;20204;-80
2023/01/01 08:14:51;;;;;;;31.60;26.83;;;5.90;99.90;;;;;;5023283;28;20238;-80
2023/01/01 08:17:16;;;;;;;36.15;28.92;;;6.00;99.90;;;;;;5018033;28;20177;-80
2023/01/01 08:19:43;;;;;;;36.13;27.50;;;6.10;99.90;;;;;;5023171;28;20189;-80
2023/01/01 08:22:09;;;;;;;43.38;29.95;;;6.10;99.90;;;;;;5023511;28;20204;-80
2023/01/01 08:24:35;;;;;;;42.58;30.98;;;6.00;99.90;;;;;;5017618;28;20196;-80
2023/01/01 08:27:01;;;;;;;39.83;30.25;;;6.00;99.90;;;;;;5020515;28;20260;-80
2023/01/01 08:29:26;;;;;;;34.42;27.83;;;6.10;99.90;;;;;;5017075;28;20292;-80
2023/01/01 08:31:52;;;;;;;36.75;28.63;;;6.10;99.90;;;;;;5021336;28;20295;-80
2023/01/01 08:34:17;;;;;;;33.80;28.20;;;6.10;99.90;;;;;;5015362;28;20177;-80
2023/01/01 08:36:43;;;;;;;38.60;30.33;;;6.10;99.90;;;;;;5020098;28;20650;-80
2023/01/01 08:39:08;;;;;;;35.58;28.05;;;6.00;99.90;;;;;;5021974;28;20192;-80
2023/01/01 08:41:34;;;;;;;38.53;30.63;;;6.10;99.90;;;;;;5015761;28;20205;-80
2023/01/01 08:44:00;;;;;;;37.25;28.77;;;6.00;99.90;;;;;;5017972;28;20205;-80
2023/01/01 08:46:26;;;;;;;38.38;29.65;;;6.10;99.90;;;;;;5020990;28;20660;-80
2023/01/01 08:48:51;;;;;;;37.33;29.45;;;6.20;99.90;;;;;;5017934;28;20209;-80
2023/01/01 08:51:17;;;;;;;37.60;28.08;;;6.20;99.90;;;;;;5015517;28;20560;-80
2023/01/01 08:53:43;;;;;;;35.72;28.27;;;6.30;99.90;;;;;;5019468;28;20200;-80
2023/01/01 08:56:11;;;;;;;34.42;26.10;;;6.50;99.90;;;;;;5022313;28;20205;-80
2023/01/01 08:58:38;;;;;;;36.35;28.15;;;6.60;99.90;;;;;;5016865;28;20181;-80
2023/01/01 09:01:05;;;;;;;35.65;30.10;;;6.70;99.90;;;;;;5015692;28;20200;-80
2023/01/01 09:03:30;;;;;;;34.38;27.00;;;6.80;99.90;;;;;;5019801;28;20192;-80
2023/01/01 09:05:56;;;;;;;36.35;28.33;;;7.00;99.90;;;;;;5018209;28;20189;-80
2023/01/01 09:08:22;;;;;;;32.10;26.95;;;7.40;99.90;;;;;;5023206;28;20197;-80
2023/01/01 09:10:48;;;;;;;32.10;26.27;;;8.10;99.90;;;;;;5022181;28;20732;-80
2023/01/01 09:13:17;;;;;;;31.83;25.88;;;8.50;99.90;;;;;;5013253;28;20187;-80
2023/01/01 09:15:43;;;;;;;26.35;23.25;;;8.90;99.90;;;;;;5019124;28;20279;-80
2023/01/01 09:18:09;;;;;;;26.42;22.30;;;9.30;99.90;;;;;;5030601;28;20212;-80
2023/01/01 09:20:36;;;;;;;25.83;21.80;;;9.80;99.90;;;;;;5028501;28;20185;-80
2023/01/01 09:23:02;;;;;;;26.10;21.75;;;10.00;99.90;;;;;;5027153;28;20252;-80
2023/01/01 09:25:27;;;;;;;25.50;20.95;;;10.00;99.90;;;;;;5027904;28;20184;-80
2023/01/01 09:28:05;;;;;;;22.65;19.65;;;10.10;99.90;;;;;;5028661;28;20205;-80
2023/01/01 09:30:31;;;;;;;25.95;21.58;;;10.40;99.90;;;;;;5027154;28;20188;-80
2023/01/01 09:32:56;;;;;;;27.20;21.48;;;10.60;99.90;;;;;;5022789;28;20200;-80
2023/01/01 09:35:22;;;;;;;22.55;18.65;;;10.80;99.90;;;;;;5029823;28;20718;-80
2023/01/01 09:37:48;;;;;;;21.65;17.88;;;11.90;99.90;;;;;;5025774;28;20180;-80
2023/01/01 09:40:55;;;;;;;22.80;18.02;;;13.20;99.90;;;;;;5045118;28;20200;-80
2023/01/01 09:43:55;;;;;;;21.58;17.40;;;14.90;99.90;;;;;;5029619;28;20193;-80
2023/01/01 09:46:24;;;;;;;18.55;15.82;;;16.30;99.90;;;;;;5033552;28;20197;-80
2023/01/01 09:48:57;;;;;;;17.85;15.85;;;17.20;99.90;;;;;;5029699;28;20201;-80
2023/01/01 09:51:27;;;;;;;17.38;15.60;;;17.50;99.90;;;;;;5031588;28;20201;-80
2023/01/01 09:54:04;;;;;;;16.23;14.23;;;18.00;99.90;;;;;;5030105;28;20205;-80
2023/01/01 09:56:33;;;;;;;16.70;14.52;;;18.80;99.90;;;;;;5046798;28;20272;-80
2023/01/01 09:58:59;;;;;;;16.58;14.82;;;19.30;98.60;;;;;;5027952;28;20191;-80
2023/01/01 10:01:45;;;;;;;15.45;13.88;;;19.60;97.00;;;;;;5032113;28;20200;-80
2023/01/01 10:04:17;;;;;;;16.25;13.75;;;19.70;95.00;;;;;;5027618;28;20218;-80
2023/01/01 10:06:58;;;;;;;16.70;14.55;;;20.00;93.60;;;;;;5030336;28;20213;-80
2023/01/01 10:09:46;;;;;;;17.42;14.40;;;20.10;92.60;;;;;;5028858;28;20280;-80
2023/01/01 10:12:22;;;;;;;16.02;14.32;;;20.50;91.50;;;;;;5030904;28;20204;-80
2023/01/01 10:14:52;;;;;;;15.63;13.88;;;20.30;90.90;;;;;;5027153;28;20177;-80
2023/01/01 10:17:36;;;;;;;15.70;14.20;;;19.60;91.10;;;;;;5030058;28;20181;-80
2023/01/01 10:20:18;;;;;;;16.25;14.57;;;19.10;92.00;;;;;;5026186;28;20181;-80
2023/01/01 10:22:48;;;;;;;16.63;14.93;;;19.00;92.20;;;;;;5024920;28;20751;-80
2023/01/01 10:25:26;;;;;;;17.13;14.68;;;19.40;91.40;;;;;;5027942;28;20234;-80
2023/01/01 10:28:00;;;;;;;19.85;13.93;;;19.70;91.50;;;;;;5022161;28;20209;-81
2023/01/01 10:30:27;;;;;;;15.73;13.63;;;20.40;90.40;;;;;;5025805;28;20275;-80
2023/01/01 10:32:55;;;;;;;15.88;14.27;;;21.10;89.10;;;;;;5021880;28;20205;-80
2023/01/01 10:35:30;;;;;;;16.40;14.80;;;21.70;85.60;;;;;;5029684;28;20324;-81
2023/01/01 10:37:59;;;;;;;15.65;14.05;;;22.10;83.20;;;;;;5026446;28;20180;-80
2023/01/01 10:40:27;;;;;;;14.43;13.00;;;22.50;81.80;;;;;;5026559;28;20205;-81
2023/01/01 10:42:55;;;;;;;15.48;13.98;;;22.80;80.00;;;;;;5029112;28;20177;-80
2023/01/01 10:45:43;;;;;;;19.30;13.98;;;23.10;77.90;;;;;;5024551;28;20200;-80
2023/01/01 10:48:24;;;;;;;15.43;13.90;;;23.20;77.10;;;;;;5031445;28;20215;-84
2023/01/01 10:50:55;;;;;;;15.82;13.70;;;23.50;75.80;;;;;;5027828;28;20248;-80
2023/01/01 10:53:23;;;;;;;14.90;13.45;;;23.60;75.10;;;;;;5028551;28;20173;-80
2023/01/01 10:55:51;;;;;;;16.17;14.48;;;23.30;75.10;;;;;;5023179;28;20185;-80
2023/01/01 10:58:38;;;;;;;14.25;12.88;;;23.60;73.20;;;;;;5024023;28;20191;-80
2023/01/01 11:01:07;;;;;;;14.68;13.18;;;23.60;72.60;;;;;;5046568;28;20635;-80
2023/01/01 11:03:33;;;;;;;15.27;13.77;;;23.80;73.50;;;;;;5023931;28;20189;-80
2023/01/01 11:06:22;;;;;;;14.73;13.30;;;24.00;71.00;;;;;;5024070;28;20193;-80
2023/01/01 11:08:51;;;;;;;14.45;12.95;;;23.80;72.00;;;;;;5036631;28;20202;-81
2023/01/01 11:11:25;;;;;;;14.20;12.75;;;24.10;71.60;;;;;;5023302;28;20212;-80
2023/01/01 11:13:53;;;;;;;14.27;12.68;;;24.20;71.10;;;;;;5024062;28;20185;-80
2023/01/01 11:16:20;;;;;;;14.25;12.77;;;24.50;70.50;;;;;;5021373;28;20249;-80
2023/01/01 11:18:46;;;;;;;14.77;12.73;;;24.40;70.50;;;;;;5027878;28;20173;-81
2023/01/01 11:21:20;;;;;;;15.30;13.85;;;24.50;69.80;;;;;;5026291;28;20196;-80
2023/01/01 11:23:47;;;;;;;14.25;12.85;;;24.00;69.40;;;;;;5022175;28;20177;-81
2023/01/01 11:26:16;;;;;;;15.15;13.63;;;23.40;71.40;;;;;;5021739;28;20189;-80
2023/01/01 11:28:56;;;;;;;15.38;13.88;;;23.20;72.50;;;;;;5026280;28;20219;-80
2023/01/01 11:31:27;;;;;;;15.13;13.55;;;23.20;72.10;;;;;;5017729;28;20220;-80
2023/01/01 11:33:55;;;;;;;14.65;12.63;;;23.30;71.30;;;;;;5014794;28;20170;-80
2023/01/01 11:36:39;;;;;;;15.48;13.98;;;23.80;71.40;;;;;;5028404;28;20501;-80
2023/01/01 11:39:16;;;;;;;14.60;13.05;;;24.60;70.30;;;;;;5034284;28;20190;-80
2023/01/01 11:41:48;;;;;;;14.00;12.65;;;25.40;68.40;;;;;;5039968;28;20751;-80
2023/01/01 11:44:44;;;;;;;14.60;13.20;;;25.70;66.60;;;;;;5019112;28;20573;-81
2023/01/01 11:47:39;;;;;;;14.82;13.32;;;26.40;65.00;;;;;;5017692;28;20192;-80
2023/01/01 11:50:23;;;;;;;15.30;13.68;;;26.70;63.70;;;;;;5024972;28;20747;-81
2023/01/01 11:52:50;;;;;;;13.05;11.75;;;26.90;62.30;;;;;;5014765;28;20196;-81
2023/01/01 11:55:41;;;;;;;14.23;12.82;;;27.20;62.50;;;;;;5014135;28;20205;-81
2023/01/01 11:58:35;;;;;;;13.85;12.45;;;27.70;60.40;;;;;;5012596;28;20689;-81
2023/01/01 12:01:11;;;;;;;15.45;13.07;;;27.80;59.50;;;;;;5016271;28;20223;-81
2023/01/01 12:03:47;;;;;;;13.68;12.30;;;27.70;58.60;;;;;;5013902;28;20557;-81
2023/01/01 12:06:21;;;;;;;14.50;13.10;;;26.70;60.20;;;;;;5014431;28;20176;-80
2023/01/01 12:08:53;;;;;;;13.57;12.20;;;26.40;61.20;;;;;;5013191;28;20208;-81
2023/01/01 12:11:43;;;;;;;13.73;12.32;;;26.20;61.70;;;;;;5014557;28;20197;-81
2023/01/01 12:14:33;;;;;;;13.60;12.20;;;26.20;61.10;;;;;;5017882;28;20182;-81
2023/01/01 12:17:24;;;;;;;13.90;12.52;;;26.30;61.90;;;;;;5012777;28;20216;-81
2023/01/01 12:20:03;;;;;;;13.73;12.43;;;26.50;60.80;;;;;;5015524;28;20192;-80
2023/01/01 12:22:29;;;;;;;13.27;11.95;;;26.30;60.60;;;;;;5014236;28;20688;-81
2023/01/01 12:24:56;;;;;;;13.27;11.98;;;26.50;61.10;;;;;;5012107;28;20231;-81
2023/01/01 12:28:03;;;;;;;12.75;11.45;;;26.90;59.70;;;;;;5011755;28;20188;-81
2023/01/01 12:31:02;;;;;;;13.75;12.45;;;27.70;58.90;;;;;;5010528;28;20231;-81
2023/01/01 12:34:01;;;;;;;13.18;11.93;;;28.40;57.60;;;;;;5014412;28;20184;-81
2023/01/01 12:36:48;;;;;;;14.25;12.88;;;28.30;56.00;;;;;;5012321;28;20523;-80
2023/01/01 12:39:29;;;;;;;14.00;12.48;;;28.10;56.90;;;;;;5033440;28;20198;-81
2023/01/01 12:42:06;;;;;;;13.48;12.20;;;27.30;57.60;;;;;;5010015;28;20211;-80
2023/01/01 12:45:16;;;;;;;12.80;11.57;;;27.10;57.70;;;;;;5021785;28;20239;-81
2023/01/01 12:47:59;;;;;;;14.23;12.73;;;26.90;58.70;;;;;;5025947;28;20185;-81
2023/01/01 12:50:24;;;;;;;13.00;11.70;;;26.60;59.10;;;;;;5015906;28;20338;-81
2023/01/01 12:53:21;;;;;;;13.52;12.32;;;26.20;59.70;;;;;;5017377;28;20683;-81
2023/01/01 12:56:02;;;;;;;13.90;12.57;;;25.40;61.40;;;;;;5022664;28;20173;-81